sensor_id;sensor_type;location;lat;lon;timestamp;P1;durP1;ratioP1;P2;durP2;ratioP2
58784;SDS011;44557;51.862;19.378;2023-07-31T00:01:19;5.90;;;2.50;;
58784;SDS011;44557;51.862;19.378;2023-07-31T00:03:21;4.90;;;2.40;;
58784;SDS011;44557;51.862;19.378;2023-07-31T00:05:23;3.90;;;2.40;;
58784;SDS011;44557;51.862;19.378;2023-07-31T00:07:24;5.50;;;2.30;;
58784;SDS011;44557;51.862;19.378;2023-07-31T00:09:26;3.90;;;2.30;;
58784;SDS011;44557;51.862;19.378;2023-07-31T00:11:36;5.00;;;2.50;;
58784;SDS011;44557;51.862;19.378;2023-07-31T00:13:38;5.30;;;2.70;;
58784;SDS011;44557;51.862;19.378;2023-07-31T00:15:41;5.80;;;3.00;;
58784;SDS011;44557;51.862;19.378;2023-07-31T00:17:43;3.50;;;2.40;;
58784;SDS011;44557;51.862;19.378;2023-07-31T00:19:49;4.60;;;2.70;;
58784;SDS011;44557;51.862;19.378;2023-07-31T00:21:52;4.50;;;3.20;;
58784;SDS011;44557;51.862;19.378;2023-07-31T00:23:55;5.10;;;2.80;;
58784;SDS011;44557;51.862;19.378;2023-07-31T00:25:57;4.70;;;2.70;;
58784;SDS011;44557;51.862;19.378;2023-07-31T00:27:59;5.60;;;2.90;;
58784;SDS011;44557;51.862;19.378;2023-07-31T00:30:01;5.90;;;3.00;;
58784;SDS011;44557;51.862;19.378;2023-07-31T00:32:03;5.30;;;3.00;;
58784;SDS011;44557;51.862;19.378;2023-07-31T00:34:06;4.00;;;2.50;;
58784;SDS011;44557;51.862;19.378;2023-07-31T00:36:07;5.60;;;2.60;;
58784;SDS011;44557;51.862;19.378;2023-07-31T00:38:09;4.50;;;2.80;;
58784;SDS011;44557;51.862;19.378;2023-07-31T00:40:12;4.60;;;2.80;;
58784;SDS011;44557;51.862;19.378;2023-07-31T00:42:15;7.90;;;2.70;;
58784;SDS011;44557;51.862;19.378;2023-07-31T00:44:17;6.30;;;2.90;;
58784;SDS011;44557;51.862;19.378;2023-07-31T00:46:19;4.10;;;2.70;;
58784;SDS011;44557;51.862;19.378;2023-07-31T00:48:22;5.00;;;2.80;;
58784;SDS011;44557;51.862;19.378;2023-07-31T00:50:25;4.00;;;2.60;;
58784;SDS011;44557;51.862;19.378;2023-07-31T00:52:29;5.30;;;3.00;;
58784;SDS011;44557;51.862;19.378;2023-07-31T00:54:31;6.20;;;2.70;;
58784;SDS011;44557;51.862;19.378;2023-07-31T00:56:33;8.40;;;3.20;;
58784;SDS011;44557;51.862;19.378;2023-07-31T00:58:35;4.80;;;3.10;;
58784;SDS011;44557;51.862;19.378;2023-07-31T01:00:38;6.80;;;3.10;;
58784;SDS011;44557;51.862;19.378;2023-07-31T01:02:39;5.90;;;3.20;;
58784;SDS011;44557;51.862;19.378;2023-07-31T01:04:42;4.20;;;2.80;;
58784;SDS011;44557;51.862;19.378;2023-07-31T01:06:53;6.40;;;2.90;;
58784;SDS011;44557;51.862;19.378;2023-07-31T01:09:04;6.10;;;2.60;;
58784;SDS011;44557;51.862;19.378;2023-07-31T01:11:31;4.60;;;2.70;;
58784;SDS011;44557;51.862;19.378;2023-07-31T01:13:36;6.70;;;2.90;;
58784;SDS011;44557;51.862;19.378;2023-07-31T01:15:38;5.00;;;2.40;;
58784;SDS011;44557;51.862;19.378;2023-07-31T01:17:44;6.90;;;2.70;;
58784;SDS011;44557;51.862;19.378;2023-07-31T01:19:46;5.20;;;2.50;;
58784;SDS011;44557;51.862;19.378;2023-07-31T01:26:19;4.90;;;2.80;;
58784;SDS011;44557;51.862;19.378;2023-07-31T01:28:26;4.80;;;2.70;;
58784;SDS011;44557;51.862;19.378;2023-07-31T01:30:50;4.40;;;2.50;;
58784;SDS011;44557;51.862;19.378;2023-07-31T01:32:52;4.80;;;2.20;;
58784;SDS011;44557;51.862;19.378;2023-07-31T01:34:57;4.30;;;2.40;;
58784;SDS011;44557;51.862;19.378;2023-07-31T01:37:01;4.70;;;2.50;;
58784;SDS011;44557;51.862;19.378;2023-07-31T01:39:02;5.10;;;2.20;;
58784;SDS011;44557;51.862;19.378;2023-07-31T01:41:05;6.00;;;2.90;;
58784;SDS011;44557;51.862;19.378;2023-07-31T01:43:07;7.00;;;2.60;;
58784;SDS011;44557;51.862;19.378;2023-07-31T01:45:09;4.20;;;2.40;;
58784;SDS011;44557;51.862;19.378;2023-07-31T01:47:12;5.00;;;2.30;;
58784;SDS011;44557;51.862;19.378;2023-07-31T01:49:15;3.50;;;2.40;;
58784;SDS011;44557;51.862;19.378;2023-07-31T01:51:17;5.00;;;2.40;;
58784;SDS011;44557;51.862;19.378;2023-07-31T01:53:20;4.20;;;2.20;;
58784;SDS011;44557;51.862;19.378;2023-07-31T01:55:22;3.80;;;2.40;;
58784;SDS011;44557;51.862;19.378;2023-07-31T01:57:24;7.10;;;2.60;;
58784;SDS011;44557;51.862;19.378;2023-07-31T01:59:25;4.10;;;2.50;;
58784;SDS011;44557;51.862;19.378;2023-07-31T02:01:28;5.40;;;2.60;;
58784;SDS011;44557;51.862;19.378;2023-07-31T02:03:30;3.40;;;2.30;;
58784;SDS011;44557;51.862;19.378;2023-07-31T02:05:32;6.80;;;2.40;;
58784;SDS011;44557;51.862;19.378;2023-07-31T02:07:33;3.70;;;2.20;;
58784;SDS011;44557;51.862;19.378;2023-07-31T02:09:35;4.60;;;2.30;;
58784;SDS011;44557;51.862;19.378;2023-07-31T02:11:37;3.90;;;2.10;;
58784;SDS011;44557;51.862;19.378;2023-07-31T02:13:39;4.50;;;2.10;;
58784;SDS011;44557;51.862;19.378;2023-07-31T02:15:41;5.50;;;2.30;;
58784;SDS011;44557;51.862;19.378;2023-07-31T02:17:43;5.60;;;2.50;;
58784;SDS011;44557;51.862;19.378;2023-07-31T02:19:45;4.80;;;2.20;;
58784;SDS011;44557;51.862;19.378;2023-07-31T02:21:46;4.10;;;2.10;;
58784;SDS011;44557;51.862;19.378;2023-07-31T02:23:48;4.70;;;2.40;;
58784;SDS011;44557;51.862;19.378;2023-07-31T02:25:51;5.30;;;2.00;;
58784;SDS011;44557;51.862;19.378;2023-07-31T02:27:53;4.30;;;2.10;;
58784;SDS011;44557;51.862;19.378;2023-07-31T02:29:55;3.20;;;2.00;;
58784;SDS011;44557;51.862;19.378;2023-07-31T02:31:57;5.10;;;1.90;;
58784;SDS011;44557;51.862;19.378;2023-07-31T02:33:59;4.30;;;2.00;;
58784;SDS011;44557;51.862;19.378;2023-07-31T02:36:01;4.60;;;2.10;;
58784;SDS011;44557;51.862;19.378;2023-07-31T02:38:03;5.80;;;2.50;;
58784;SDS011;44557;51.862;19.378;2023-07-31T02:40:04;5.50;;;2.10;;
58784;SDS011;44557;51.862;19.378;2023-07-31T02:42:07;3.60;;;2.00;;
58784;SDS011;44557;51.862;19.378;2023-07-31T02:44:09;5.40;;;2.10;;
58784;SDS011;44557;51.862;19.378;2023-07-31T02:46:12;5.70;;;1.90;;
58784;SDS011;44557;51.862;19.378;2023-07-31T02:48:14;7.40;;;2.30;;
58784;SDS011;44557;51.862;19.378;2023-07-31T02:50:16;4.70;;;2.10;;
58784;SDS011;44557;51.862;19.378;2023-07-31T02:52:18;6.60;;;2.30;;
58784;SDS011;44557;51.862;19.378;2023-07-31T02:54:20;4.50;;;2.10;;
58784;SDS011;44557;51.862;19.378;2023-07-31T02:56:23;3.70;;;1.90;;
58784;SDS011;44557;51.862;19.378;2023-07-31T02:58:24;3.90;;;2.30;;
58784;SDS011;44557;51.862;19.378;2023-07-31T03:00:26;4.80;;;2.20;;
58784;SDS011;44557;51.862;19.378;2023-07-31T03:02:28;4.60;;;2.40;;
58784;SDS011;44557;51.862;19.378;2023-07-31T03:04:30;5.00;;;2.20;;
58784;SDS011;44557;51.862;19.378;2023-07-31T03:06:32;3.50;;;2.00;;
58784;SDS011;44557;51.862;19.378;2023-07-31T03:08:34;3.20;;;2.20;;
58784;SDS011;44557;51.862;19.378;2023-07-31T03:10:36;4.50;;;2.10;;
58784;SDS011;44557;51.862;19.378;2023-07-31T03:12:37;3.60;;;2.10;;
58784;SDS011;44557;51.862;19.378;2023-07-31T03:14:39;5.40;;;2.40;;
58784;SDS011;44557;51.862;19.378;2023-07-31T03:16:41;3.60;;;2.50;;
58784;SDS011;44557;51.862;19.378;2023-07-31T03:18:43;4.30;;;2.20;;
58784;SDS011;44557;51.862;19.378;2023-07-31T03:20:45;6.30;;;2.90;;
58784;SDS011;44557;51.862;19.378;2023-07-31T03:22:48;4.50;;;2.60;;
58784;SDS011;44557;51.862;19.378;2023-07-31T03:24:50;5.60;;;2.80;;
58784;SDS011;44557;51.862;19.378;2023-07-31T03:26:52;4.20;;;2.40;;
58784;SDS011;44557;51.862;19.378;2023-07-31T03:28:54;6.40;;;3.10;;
58784;SDS011;44557;51.862;19.378;2023-07-31T03:30:56;5.80;;;2.90;;
58784;SDS011;44557;51.862;19.378;2023-07-31T03:32:58;4.70;;;2.70;;
58784;SDS011;44557;51.862;19.378;2023-07-31T03:35:01;5.20;;;3.10;;
58784;SDS011;44557;51.862;19.378;2023-07-31T03:37:03;6.10;;;3.20;;
58784;SDS011;44557;51.862;19.378;2023-07-31T03:39:06;4.70;;;2.90;;
58784;SDS011;44557;51.862;19.378;2023-07-31T03:41:08;6.80;;;3.10;;
58784;SDS011;44557;51.862;19.378;2023-07-31T03:43:13;4.70;;;3.00;;
58784;SDS011;44557;51.862;19.378;2023-07-31T03:45:16;6.20;;;2.90;;
58784;SDS011;44557;51.862;19.378;2023-07-31T03:47:18;4.90;;;3.00;;
58784;SDS011;44557;51.862;19.378;2023-07-31T03:49:20;5.80;;;3.00;;
58784;SDS011;44557;51.862;19.378;2023-07-31T03:51:22;5.80;;;2.70;;
58784;SDS011;44557;51.862;19.378;2023-07-31T03:53:25;8.30;;;3.30;;
58784;SDS011;44557;51.862;19.378;2023-07-31T03:55:27;7.90;;;3.40;;
58784;SDS011;44557;51.862;19.378;2023-07-31T03:57:29;4.70;;;3.10;;
58784;SDS011;44557;51.862;19.378;2023-07-31T03:59:34;5.50;;;3.00;;
58784;SDS011;44557;51.862;19.378;2023-07-31T04:01:36;5.50;;;3.10;;
58784;SDS011;44557;51.862;19.378;2023-07-31T04:03:39;7.00;;;3.50;;
58784;SDS011;44557;51.862;19.378;2023-07-31T04:05:41;6.00;;;3.10;;
58784;SDS011;44557;51.862;19.378;2023-07-31T04:07:44;6.20;;;3.20;;
58784;SDS011;44557;51.862;19.378;2023-07-31T04:09:47;4.10;;;2.70;;
58784;SDS011;44557;51.862;19.378;2023-07-31T04:11:49;5.20;;;3.00;;
58784;SDS011;44557;51.862;19.378;2023-07-31T04:13:50;7.00;;;3.40;;
58784;SDS011;44557;51.862;19.378;2023-07-31T04:15:52;5.70;;;2.70;;
58784;SDS011;44557;51.862;19.378;2023-07-31T04:17:54;6.60;;;3.00;;
58784;SDS011;44557;51.862;19.378;2023-07-31T04:19:57;5.40;;;2.90;;
58784;SDS011;44557;51.862;19.378;2023-07-31T04:22:00;9.00;;;3.70;;
58784;SDS011;44557;51.862;19.378;2023-07-31T04:24:01;7.10;;;3.30;;
58784;SDS011;44557;51.862;19.378;2023-07-31T04:26:03;5.20;;;3.20;;
58784;SDS011;44557;51.862;19.378;2023-07-31T04:28:05;6.50;;;3.30;;
58784;SDS011;44557;51.862;19.378;2023-07-31T04:30:10;7.40;;;3.00;;
58784;SDS011;44557;51.862;19.378;2023-07-31T04:32:14;5.80;;;3.10;;
58784;SDS011;44557;51.862;19.378;2023-07-31T04:34:18;5.30;;;2.90;;
58784;SDS011;44557;51.862;19.378;2023-07-31T04:36:20;4.90;;;3.10;;
58784;SDS011;44557;51.862;19.378;2023-07-31T04:38:22;5.50;;;3.00;;
58784;SDS011;44557;51.862;19.378;2023-07-31T04:40:24;5.80;;;2.80;;
58784;SDS011;44557;51.862;19.378;2023-07-31T04:42:27;5.00;;;2.70;;
58784;SDS011;44557;51.862;19.378;2023-07-31T04:44:30;6.20;;;2.80;;
58784;SDS011;44557;51.862;19.378;2023-07-31T04:46:32;7.80;;;3.00;;
58784;SDS011;44557;51.862;19.378;2023-07-31T04:48:34;5.70;;;3.30;;
58784;SDS011;44557;51.862;19.378;2023-07-31T04:50:35;7.00;;;3.00;;
58784;SDS011;44557;51.862;19.378;2023-07-31T04:52:37;5.00;;;2.90;;
58784;SDS011;44557;51.862;19.378;2023-07-31T04:54:39;5.30;;;2.80;;
58784;SDS011;44557;51.862;19.378;2023-07-31T04:56:41;5.60;;;2.80;;
58784;SDS011;44557;51.862;19.378;2023-07-31T04:58:44;5.20;;;2.80;;
58784;SDS011;44557;51.862;19.378;2023-07-31T05:00:46;6.10;;;3.10;;
58784;SDS011;44557;51.862;19.378;2023-07-31T05:02:48;9.70;;;3.10;;
58784;SDS011;44557;51.862;19.378;2023-07-31T05:04:50;5.70;;;3.00;;
58784;SDS011;44557;51.862;19.378;2023-07-31T05:06:52;5.80;;;2.60;;
58784;SDS011;44557;51.862;19.378;2023-07-31T05:08:53;6.00;;;2.80;;
58784;SDS011;44557;51.862;19.378;2023-07-31T05:10:56;5.00;;;2.50;;
58784;SDS011;44557;51.862;19.378;2023-07-31T05:12:57;5.50;;;2.80;;
58784;SDS011;44557;51.862;19.378;2023-07-31T05:14:59;5.30;;;2.70;;
58784;SDS011;44557;51.862;19.378;2023-07-31T05:17:01;5.60;;;3.00;;
58784;SDS011;44557;51.862;19.378;2023-07-31T05:19:02;4.90;;;2.80;;
58784;SDS011;44557;51.862;19.378;2023-07-31T05:21:04;6.80;;;2.90;;
58784;SDS011;44557;51.862;19.378;2023-07-31T05:23:06;6.40;;;3.00;;
58784;SDS011;44557;51.862;19.378;2023-07-31T05:25:09;5.40;;;2.60;;
58784;SDS011;44557;51.862;19.378;2023-07-31T05:27:11;4.80;;;2.80;;
58784;SDS011;44557;51.862;19.378;2023-07-31T05:29:16;5.30;;;2.90;;
58784;SDS011;44557;51.862;19.378;2023-07-31T05:31:18;6.60;;;2.80;;
58784;SDS011;44557;51.862;19.378;2023-07-31T05:33:22;5.60;;;3.10;;
58784;SDS011;44557;51.862;19.378;2023-07-31T05:35:23;5.50;;;2.80;;
58784;SDS011;44557;51.862;19.378;2023-07-31T05:37:25;6.20;;;2.80;;
58784;SDS011;44557;51.862;19.378;2023-07-31T05:39:27;4.90;;;2.80;;
58784;SDS011;44557;51.862;19.378;2023-07-31T05:41:29;5.10;;;2.50;;
58784;SDS011;44557;51.862;19.378;2023-07-31T05:43:31;5.00;;;2.80;;
58784;SDS011;44557;51.862;19.378;2023-07-31T05:45:32;6.30;;;3.00;;
58784;SDS011;44557;51.862;19.378;2023-07-31T05:47:34;6.90;;;3.30;;
58784;SDS011;44557;51.862;19.378;2023-07-31T05:49:36;7.50;;;3.10;;
58784;SDS011;44557;51.862;19.378;2023-07-31T05:51:39;6.10;;;2.80;;
58784;SDS011;44557;51.862;19.378;2023-07-31T05:53:41;5.20;;;2.60;;
58784;SDS011;44557;51.862;19.378;2023-07-31T05:55:44;4.20;;;2.80;;
58784;SDS011;44557;51.862;19.378;2023-07-31T05:57:45;5.60;;;3.00;;
58784;SDS011;44557;51.862;19.378;2023-07-31T05:59:47;6.70;;;3.00;;
58784;SDS011;44557;51.862;19.378;2023-07-31T06:01:51;5.50;;;3.00;;
58784;SDS011;44557;51.862;19.378;2023-07-31T06:03:53;6.80;;;3.10;;
58784;SDS011;44557;51.862;19.378;2023-07-31T06:05:55;5.70;;;3.20;;
58784;SDS011;44557;51.862;19.378;2023-07-31T06:07:57;5.30;;;2.60;;
58784;SDS011;44557;51.862;19.378;2023-07-31T06:09:59;5.20;;;2.70;;
58784;SDS011;44557;51.862;19.378;2023-07-31T06:12:07;6.70;;;3.10;;
58784;SDS011;44557;51.862;19.378;2023-07-31T06:14:10;4.40;;;2.60;;
58784;SDS011;44557;51.862;19.378;2023-07-31T06:16:12;4.50;;;2.60;;
58784;SDS011;44557;51.862;19.378;2023-07-31T06:18:14;6.70;;;2.90;;
58784;SDS011;44557;51.862;19.378;2023-07-31T06:20:16;5.70;;;2.50;;
58784;SDS011;44557;51.862;19.378;2023-07-31T06:22:18;6.10;;;2.60;;
58784;SDS011;44557;51.862;19.378;2023-07-31T06:24:20;8.50;;;3.20;;
58784;SDS011;44557;51.862;19.378;2023-07-31T06:26:23;5.70;;;2.70;;
58784;SDS011;44557;51.862;19.378;2023-07-31T06:28:29;5.70;;;2.60;;
58784;SDS011;44557;51.862;19.378;2023-07-31T06:30:33;6.30;;;2.80;;
58784;SDS011;44557;51.862;19.378;2023-07-31T06:32:35;5.40;;;2.80;;
58784;SDS011;44557;51.862;19.378;2023-07-31T06:34:37;6.00;;;3.00;;
58784;SDS011;44557;51.862;19.378;2023-07-31T06:36:39;5.90;;;2.70;;
58784;SDS011;44557;51.862;19.378;2023-07-31T06:38:42;6.40;;;3.10;;
58784;SDS011;44557;51.862;19.378;2023-07-31T06:40:44;5.30;;;2.30;;
58784;SDS011;44557;51.862;19.378;2023-07-31T06:42:46;6.20;;;2.80;;
58784;SDS011;44557;51.862;19.378;2023-07-31T06:44:49;6.40;;;2.80;;
58784;SDS011;44557;51.862;19.378;2023-07-31T06:46:51;5.60;;;2.70;;
58784;SDS011;44557;51.862;19.378;2023-07-31T06:48:53;7.70;;;2.90;;
58784;SDS011;44557;51.862;19.378;2023-07-31T06:50:55;5.80;;;2.70;;
58784;SDS011;44557;51.862;19.378;2023-07-31T06:52:57;4.80;;;2.50;;
58784;SDS011;44557;51.862;19.378;2023-07-31T06:57:05;7.00;;;2.90;;
58784;SDS011;44557;51.862;19.378;2023-07-31T06:59:07;5.80;;;2.90;;
58784;SDS011;44557;51.862;19.378;2023-07-31T07:01:09;5.80;;;2.70;;
58784;SDS011;44557;51.862;19.378;2023-07-31T07:03:11;6.50;;;2.90;;
58784;SDS011;44557;51.862;19.378;2023-07-31T07:05:19;4.60;;;2.60;;
58784;SDS011;44557;51.862;19.378;2023-07-31T07:07:21;9.60;;;2.90;;
58784;SDS011;44557;51.862;19.378;2023-07-31T07:09:23;6.00;;;2.70;;
58784;SDS011;44557;51.862;19.378;2023-07-31T07:11:25;7.20;;;2.50;;
58784;SDS011;44557;51.862;19.378;2023-07-31T07:13:27;8.20;;;2.80;;
58784;SDS011;44557;51.862;19.378;2023-07-31T07:15:29;6.00;;;2.90;;
58784;SDS011;44557;51.862;19.378;2023-07-31T07:17:31;4.70;;;2.50;;
58784;SDS011;44557;51.862;19.378;2023-07-31T07:19:34;6.00;;;2.30;;
58784;SDS011;44557;51.862;19.378;2023-07-31T07:21:35;6.80;;;2.90;;
58784;SDS011;44557;51.862;19.378;2023-07-31T07:23:37;4.20;;;2.30;;
58784;SDS011;44557;51.862;19.378;2023-07-31T07:25:39;5.60;;;2.40;;
58784;SDS011;44557;51.862;19.378;2023-07-31T07:27:41;5.60;;;2.30;;
58784;SDS011;44557;51.862;19.378;2023-07-31T07:29:42;6.70;;;2.40;;
58784;SDS011;44557;51.862;19.378;2023-07-31T07:31:44;5.60;;;2.30;;
58784;SDS011;44557;51.862;19.378;2023-07-31T07:33:46;3.50;;;2.10;;
58784;SDS011;44557;51.862;19.378;2023-07-31T07:35:49;5.50;;;2.30;;
58784;SDS011;44557;51.862;19.378;2023-07-31T07:37:51;5.70;;;2.20;;
58784;SDS011;44557;51.862;19.378;2023-07-31T07:39:53;5.50;;;2.10;;
58784;SDS011;44557;51.862;19.378;2023-07-31T07:41:55;5.10;;;2.00;;
58784;SDS011;44557;51.862;19.378;2023-07-31T07:43:57;6.00;;;2.00;;
58784;SDS011;44557;51.862;19.378;2023-07-31T07:46:00;5.70;;;1.80;;
58784;SDS011;44557;51.862;19.378;2023-07-31T07:48:02;5.70;;;2.50;;
58784;SDS011;44557;51.862;19.378;2023-07-31T07:50:04;6.40;;;2.20;;
58784;SDS011;44557;51.862;19.378;2023-07-31T07:52:07;4.80;;;2.00;;
58784;SDS011;44557;51.862;19.378;2023-07-31T07:54:09;6.90;;;2.10;;
58784;SDS011;44557;51.862;19.378;2023-07-31T07:56:11;4.80;;;2.20;;
58784;SDS011;44557;51.862;19.378;2023-07-31T07:58:13;4.90;;;2.10;;
58784;SDS011;44557;51.862;19.378;2023-07-31T08:00:15;5.50;;;2.20;;
58784;SDS011;44557;51.862;19.378;2023-07-31T08:02:18;5.40;;;2.00;;
58784;SDS011;44557;51.862;19.378;2023-07-31T08:04:20;6.20;;;1.80;;
58784;SDS011;44557;51.862;19.378;2023-07-31T08:06:22;4.30;;;1.60;;
58784;SDS011;44557;51.862;19.378;2023-07-31T08:08:24;4.50;;;1.40;;
58784;SDS011;44557;51.862;19.378;2023-07-31T08:10:26;5.00;;;1.80;;
58784;SDS011;44557;51.862;19.378;2023-07-31T08:12:29;4.80;;;2.00;;
58784;SDS011;44557;51.862;19.378;2023-07-31T08:14:30;4.70;;;1.90;;
58784;SDS011;44557;51.862;19.378;2023-07-31T08:16:33;5.20;;;2.40;;
58784;SDS011;44557;51.862;19.378;2023-07-31T08:18:36;3.80;;;1.60;;
58784;SDS011;44557;51.862;19.378;2023-07-31T08:20:37;4.90;;;1.80;;
58784;SDS011;44557;51.862;19.378;2023-07-31T08:22:39;6.70;;;1.90;;
58784;SDS011;44557;51.862;19.378;2023-07-31T08:24:41;5.90;;;1.80;;
58784;SDS011;44557;51.862;19.378;2023-07-31T08:26:44;5.20;;;1.90;;
58784;SDS011;44557;51.862;19.378;2023-07-31T08:28:46;5.10;;;1.90;;
58784;SDS011;44557;51.862;19.378;2023-07-31T08:30:49;3.30;;;1.50;;
58784;SDS011;44557;51.862;19.378;2023-07-31T08:32:52;4.10;;;1.90;;
58784;SDS011;44557;51.862;19.378;2023-07-31T08:34:54;6.20;;;2.00;;
58784;SDS011;44557;51.862;19.378;2023-07-31T08:36:56;4.00;;;1.40;;
58784;SDS011;44557;51.862;19.378;2023-07-31T08:38:59;5.30;;;1.60;;
58784;SDS011;44557;51.862;19.378;2023-07-31T08:41:02;5.40;;;1.90;;
58784;SDS011;44557;51.862;19.378;2023-07-31T08:43:07;6.00;;;2.00;;
58784;SDS011;44557;51.862;19.378;2023-07-31T08:45:13;4.60;;;1.90;;
58784;SDS011;44557;51.862;19.378;2023-07-31T08:47:17;4.20;;;1.60;;
58784;SDS011;44557;51.862;19.378;2023-07-31T08:49:21;5.40;;;1.50;;
58784;SDS011;44557;51.862;19.378;2023-07-31T08:51:25;4.90;;;1.50;;
58784;SDS011;44557;51.862;19.378;2023-07-31T08:53:27;3.40;;;1.60;;
58784;SDS011;44557;51.862;19.378;2023-07-31T08:55:29;5.80;;;1.70;;
58784;SDS011;44557;51.862;19.378;2023-07-31T08:57:34;6.20;;;1.90;;
58784;SDS011;44557;51.862;19.378;2023-07-31T08:59:37;4.10;;;1.90;;
58784;SDS011;44557;51.862;19.378;2023-07-31T09:01:41;5.00;;;1.80;;
58784;SDS011;44557;51.862;19.378;2023-07-31T09:03:48;7.30;;;2.10;;
58784;SDS011;44557;51.862;19.378;2023-07-31T09:05:53;5.10;;;2.00;;
58784;SDS011;44557;51.862;19.378;2023-07-31T09:07:58;5.20;;;1.80;;
58784;SDS011;44557;51.862;19.378;2023-07-31T09:10:00;6.80;;;1.80;;
58784;SDS011;44557;51.862;19.378;2023-07-31T09:12:02;4.60;;;1.90;;
58784;SDS011;44557;51.862;19.378;2023-07-31T09:14:05;6.10;;;2.00;;
58784;SDS011;44557;51.862;19.378;2023-07-31T09:16:10;3.50;;;1.50;;
58784;SDS011;44557;51.862;19.378;2023-07-31T09:18:12;4.60;;;1.90;;
58784;SDS011;44557;51.862;19.378;2023-07-31T09:20:20;6.60;;;1.90;;
58784;SDS011;44557;51.862;19.378;2023-07-31T09:22:31;3.60;;;1.80;;
58784;SDS011;44557;51.862;19.378;2023-07-31T09:24:35;4.00;;;1.60;;
58784;SDS011;44557;51.862;19.378;2023-07-31T09:26:37;6.00;;;1.90;;
58784;SDS011;44557;51.862;19.378;2023-07-31T09:28:39;4.30;;;1.70;;
58784;SDS011;44557;51.862;19.378;2023-07-31T09:32:49;4.30;;;1.70;;
58784;SDS011;44557;51.862;19.378;2023-07-31T09:34:53;5.60;;;1.50;;
58784;SDS011;44557;51.862;19.378;2023-07-31T09:36:57;3.20;;;1.30;;
58784;SDS011;44557;51.862;19.378;2023-07-31T09:39:02;6.70;;;1.70;;
58784;SDS011;44557;51.862;19.378;2023-07-31T09:41:06;5.60;;;1.80;;
58784;SDS011;44557;51.862;19.378;2023-07-31T09:43:10;5.60;;;1.70;;
58784;SDS011;44557;51.862;19.378;2023-07-31T09:45:13;5.70;;;1.50;;
58784;SDS011;44557;51.862;19.378;2023-07-31T09:47:22;7.60;;;2.00;;
58784;SDS011;44557;51.862;19.378;2023-07-31T09:49:28;5.50;;;1.70;;
58784;SDS011;44557;51.862;19.378;2023-07-31T09:51:31;4.70;;;1.50;;
58784;SDS011;44557;51.862;19.378;2023-07-31T09:53:33;6.50;;;1.70;;
58784;SDS011;44557;51.862;19.378;2023-07-31T09:55:35;4.90;;;1.70;;
58784;SDS011;44557;51.862;19.378;2023-07-31T09:57:40;6.20;;;1.50;;
58784;SDS011;44557;51.862;19.378;2023-07-31T09:59:48;4.70;;;1.70;;
58784;SDS011;44557;51.862;19.378;2023-07-31T10:01:51;3.40;;;1.60;;
58784;SDS011;44557;51.862;19.378;2023-07-31T10:03:58;5.70;;;2.10;;
58784;SDS011;44557;51.862;19.378;2023-07-31T10:06:00;6.70;;;1.70;;
58784;SDS011;44557;51.862;19.378;2023-07-31T10:08:04;3.10;;;1.30;;
58784;SDS011;44557;51.862;19.378;2023-07-31T10:10:08;4.00;;;1.30;;
58784;SDS011;44557;51.862;19.378;2023-07-31T10:12:12;4.10;;;1.70;;
58784;SDS011;44557;51.862;19.378;2023-07-31T10:14:19;3.30;;;1.50;;
58784;SDS011;44557;51.862;19.378;2023-07-31T10:16:22;4.70;;;1.30;;
58784;SDS011;44557;51.862;19.378;2023-07-31T10:18:25;4.80;;;1.50;;
58784;SDS011;44557;51.862;19.378;2023-07-31T10:20:28;6.40;;;1.70;;
58784;SDS011;44557;51.862;19.378;2023-07-31T10:22:31;4.10;;;1.80;;
58784;SDS011;44557;51.862;19.378;2023-07-31T10:24:35;4.30;;;1.40;;
58784;SDS011;44557;51.862;19.378;2023-07-31T10:26:39;6.80;;;1.60;;
58784;SDS011;44557;51.862;19.378;2023-07-31T10:28:42;6.10;;;1.90;;
58784;SDS011;44557;51.862;19.378;2023-07-31T10:30:46;3.30;;;1.40;;
58784;SDS011;44557;51.862;19.378;2023-07-31T10:32:49;4.90;;;1.40;;
58784;SDS011;44557;51.862;19.378;2023-07-31T10:34:52;3.70;;;1.50;;
58784;SDS011;44557;51.862;19.378;2023-07-31T10:39:34;6.00;;;1.50;;
58784;SDS011;44557;51.862;19.378;2023-07-31T10:41:39;5.60;;;1.60;;
58784;SDS011;44557;51.862;19.378;2023-07-31T10:43:42;4.00;;;1.50;;
58784;SDS011;44557;51.862;19.378;2023-07-31T10:45:45;5.20;;;1.50;;
58784;SDS011;44557;51.862;19.378;2023-07-31T10:47:49;6.20;;;2.00;;
58784;SDS011;44557;51.862;19.378;2023-07-31T10:52:21;6.90;;;1.60;;
58784;SDS011;44557;51.862;19.378;2023-07-31T10:54:25;6.00;;;2.00;;
58784;SDS011;44557;51.862;19.378;2023-07-31T10:56:28;6.90;;;1.90;;
58784;SDS011;44557;51.862;19.378;2023-07-31T10:58:41;6.30;;;1.70;;
58784;SDS011;44557;51.862;19.378;2023-07-31T11:00:45;5.00;;;2.00;;
58784;SDS011;44557;51.862;19.378;2023-07-31T11:03:03;5.30;;;1.40;;
58784;SDS011;44557;51.862;19.378;2023-07-31T11:05:12;6.20;;;1.60;;
58784;SDS011;44557;51.862;19.378;2023-07-31T11:07:14;4.40;;;1.60;;
58784;SDS011;44557;51.862;19.378;2023-07-31T11:09:16;5.20;;;1.50;;
58784;SDS011;44557;51.862;19.378;2023-07-31T11:11:18;6.20;;;1.60;;
58784;SDS011;44557;51.862;19.378;2023-07-31T11:13:21;5.70;;;1.70;;
58784;SDS011;44557;51.862;19.378;2023-07-31T11:15:26;6.10;;;1.60;;
58784;SDS011;44557;51.862;19.378;2023-07-31T11:17:28;7.50;;;1.30;;
58784;SDS011;44557;51.862;19.378;2023-07-31T11:19:30;4.60;;;1.60;;
58784;SDS011;44557;51.862;19.378;2023-07-31T11:21:32;4.20;;;1.40;;
58784;SDS011;44557;51.862;19.378;2023-07-31T11:23:36;4.80;;;1.50;;
58784;SDS011;44557;51.862;19.378;2023-07-31T11:25:39;4.00;;;1.70;;
58784;SDS011;44557;51.862;19.378;2023-07-31T11:27:44;6.30;;;1.40;;
58784;SDS011;44557;51.862;19.378;2023-07-31T11:29:46;4.20;;;1.60;;
58784;SDS011;44557;51.862;19.378;2023-07-31T11:31:48;4.10;;;1.50;;
58784;SDS011;44557;51.862;19.378;2023-07-31T11:33:50;4.50;;;1.50;;
58784;SDS011;44557;51.862;19.378;2023-07-31T11:36:05;3.60;;;1.50;;
58784;SDS011;44557;51.862;19.378;2023-07-31T11:38:07;5.30;;;1.70;;
58784;SDS011;44557;51.862;19.378;2023-07-31T11:40:12;5.00;;;1.70;;
58784;SDS011;44557;51.862;19.378;2023-07-31T11:42:15;5.00;;;1.70;;
58784;SDS011;44557;51.862;19.378;2023-07-31T11:44:17;5.90;;;1.40;;
58784;SDS011;44557;51.862;19.378;2023-07-31T11:46:19;4.90;;;1.50;;
58784;SDS011;44557;51.862;19.378;2023-07-31T11:48:22;4.00;;;1.60;;
58784;SDS011;44557;51.862;19.378;2023-07-31T11:50:28;5.60;;;1.90;;
58784;SDS011;44557;51.862;19.378;2023-07-31T11:52:32;3.50;;;1.50;;
58784;SDS011;44557;51.862;19.378;2023-07-31T11:54:42;3.90;;;1.50;;
58784;SDS011;44557;51.862;19.378;2023-07-31T11:56:44;4.30;;;1.30;;
58784;SDS011;44557;51.862;19.378;2023-07-31T11:58:47;3.50;;;1.20;;
58784;SDS011;44557;51.862;19.378;2023-07-31T12:00:52;4.10;;;1.50;;
58784;SDS011;44557;51.862;19.378;2023-07-31T12:02:55;4.10;;;1.30;;
58784;SDS011;44557;51.862;19.378;2023-07-31T12:04:57;6.20;;;1.50;;
58784;SDS011;44557;51.862;19.378;2023-07-31T12:07:00;4.90;;;1.70;;
58784;SDS011;44557;51.862;19.378;2023-07-31T12:09:05;4.60;;;1.40;;
58784;SDS011;44557;51.862;19.378;2023-07-31T12:11:07;3.70;;;1.40;;
58784;SDS011;44557;51.862;19.378;2023-07-31T12:13:25;5.50;;;1.40;;
58784;SDS011;44557;51.862;19.378;2023-07-31T12:15:43;5.40;;;1.60;;
58784;SDS011;44557;51.862;19.378;2023-07-31T12:17:47;4.30;;;1.20;;
58784;SDS011;44557;51.862;19.378;2023-07-31T12:19:49;7.30;;;2.00;;
58784;SDS011;44557;51.862;19.378;2023-07-31T12:21:51;4.40;;;1.40;;
58784;SDS011;44557;51.862;19.378;2023-07-31T12:23:52;5.50;;;1.70;;